createdAt,value
2019-02-21T00:02:18.999Z,86.46
2019-02-21T00:04:47.274Z,87.44
2019-02-21T00:07:15.561Z,88.15
2019-02-21T00:09:43.873Z,88.77
2019-02-21T00:12:12.199Z,88.69
2019-02-21T00:14:40.537Z,89.14
2019-02-21T00:17:08.799Z,89.19
2019-02-21T00:19:37.080Z,89.09
2019-02-21T00:22:05.351Z,89.21
2019-02-21T00:24:33.641Z,88.90
2019-02-21T00:27:01.896Z,88.82
2019-02-21T00:29:30.189Z,88.53
2019-02-21T00:31:58.453Z,88.23
2019-02-21T00:34:26.717Z,88.03
2019-02-21T00:36:55.007Z,87.82
2019-02-21T00:39:23.271Z,87.57
2019-02-21T00:41:51.578Z,87.69
2019-02-21T00:44:19.848Z,87.76
2019-02-21T00:46:48.122Z,87.29
2019-02-21T00:49:16.393Z,87.04
2019-02-21T00:51:44.696Z,87.01
2019-02-21T00:54:12.968Z,86.86
2019-02-21T00:56:41.246Z,87.03
2019-02-21T00:59:10.139Z,86.64
2019-02-21T01:01:38.404Z,86.52
2019-02-21T01:04:06.750Z,86.54
2019-02-21T01:06:35.112Z,86.26
2019-02-21T01:09:04.711Z,86.36
2019-02-21T01:11:32.994Z,86.24
2019-02-21T01:14:01.261Z,86.86
2019-02-21T01:16:29.560Z,86.86
2019-02-21T01:18:57.826Z,86.70
2019-02-21T01:21:26.102Z,86.58
2019-02-21T01:23:54.391Z,86.68
2019-02-21T01:26:22.651Z,86.19
2019-02-21T01:28:51.001Z,86.68
2019-02-21T01:31:19.282Z,86.62
2019-02-21T01:33:47.554Z,86.70
2019-02-21T01:36:15.830Z,86.30
2019-02-21T01:38:44.111Z,86.28
2019-02-21T01:41:12.370Z,86.81
2019-02-21T01:43:41.188Z,86.53
2019-02-21T01:46:09.480Z,86.25
2019-02-21T01:48:37.770Z,86.26
2019-02-21T01:51:06.037Z,86.33
2019-02-21T01:53:34.318Z,86.39
2019-02-21T01:56:02.595Z,86.58
2019-02-21T01:58:30.840Z,86.29
2019-02-21T02:01:08.000Z,86.11
2019-02-21T02:03:29.168Z,86.00
2019-02-21T02:05:57.440Z,85.48
2019-02-21T02:08:25.775Z,85.49
2019-02-21T02:10:54.064Z,85.25
2019-02-21T02:13:24.914Z,85.26
2019-02-21T02:15:52.316Z,85.13
2019-02-21T02:18:20.573Z,84.86
2019-02-21T02:20:48.828Z,84.88
2019-02-21T02:23:17.116Z,84.50
2019-02-21T02:25:45.381Z,84.32
2019-02-21T02:28:13.651Z,84.58
2019-02-21T02:30:41.935Z,84.49
2019-02-21T02:33:10.214Z,84.26
2019-02-21T02:35:38.495Z,84.29
2019-02-21T02:38:06.758Z,84.37
2019-02-21T02:40:35.030Z,84.14
2019-02-21T02:43:03.293Z,84.24
2019-02-21T02:45:31.604Z,84.35
2019-02-21T02:47:59.877Z,84.27
2019-02-21T02:50:28.147Z,84.11
2019-02-21T02:52:56.419Z,84.21
2019-02-21T02:55:24.702Z,84.16
2019-02-21T03:04:54.657Z,84.05
2019-02-21T03:07:22.983Z,84.40
2019-02-21T03:09:51.224Z,84.28
2019-02-21T03:12:19.496Z,84.63
2019-02-21T03:14:47.769Z,84.48
2019-02-21T03:24:27.009Z,87.67
2019-02-21T03:26:55.278Z,89.35
2019-02-21T03:29:23.551Z,89.95
2019-02-21T03:31:55.061Z,90.00
2019-02-21T03:34:21.809Z,90.43
2019-02-21T03:36:50.099Z,90.30
2019-02-21T03:39:18.358Z,91.06
2019-02-21T03:41:46.622Z,91.56
2019-02-21T03:44:14.871Z,92.29
2019-02-21T03:46:43.141Z,92.41
2019-02-21T03:49:11.422Z,91.63
2019-02-21T03:51:39.709Z,92.50
2019-02-21T03:54:08.255Z,92.54
2019-02-21T03:56:36.526Z,92.32
2019-02-21T03:59:04.803Z,92.44
2019-02-21T04:01:33.077Z,91.82
2019-02-21T04:04:01.344Z,92.19
2019-02-21T04:06:29.638Z,92.16
2019-02-21T04:40:29.290Z,92.87
2019-02-21T04:42:57.630Z,93.13
2019-02-21T04:45:25.910Z,93.27
2019-02-21T04:47:54.178Z,93.15
2019-02-21T04:50:22.433Z,93.14
2019-02-21T04:52:50.731Z,93.28
2019-02-21T04:55:19.146Z,93.06
2019-02-21T04:57:47.407Z,92.95
2019-02-21T05:00:15.786Z,92.76
2019-02-21T05:02:44.054Z,93.01
2019-02-21T05:05:12.352Z,93.01
2019-02-21T05:07:40.659Z,92.84
2019-02-21T05:10:09.094Z,92.69
2019-02-21T05:12:37.340Z,92.66
2019-02-21T05:15:06.115Z,92.87
2019-02-21T05:17:34.402Z,92.69
2019-02-21T05:20:02.699Z,92.52
2019-02-21T05:22:30.964Z,92.72
2019-02-21T05:24:59.252Z,92.75
2019-02-21T05:27:29.171Z,92.67
2019-02-21T05:29:57.442Z,92.88
2019-02-21T05:32:27.349Z,92.67
2019-02-21T05:34:57.271Z,92.89
2019-02-21T05:37:42.283Z,93.12
2019-02-21T05:40:14.689Z,93.01
2019-02-21T05:42:59.314Z,92.78
2019-02-21T05:45:38.268Z,92.96
2019-02-21T05:48:14.225Z,92.44
2019-02-21T05:50:44.145Z,92.42
2019-02-21T05:53:14.056Z,92.59
2019-02-21T05:55:49.723Z,92.61
2019-02-21T05:58:31.492Z,92.93
2019-02-21T06:01:10.325Z,92.86
2019-02-21T06:03:52.266Z,93.06
2019-02-21T06:06:23.165Z,92.92
2019-02-21T06:08:55.818Z,93.05
2019-02-21T06:11:28.153Z,92.86
2019-02-21T06:14:00.775Z,92.84
2019-02-21T06:16:33.255Z,92.80
2019-02-21T06:19:05.776Z,93.01
2019-02-21T06:21:35.689Z,93.21
2019-02-21T06:24:05.600Z,93.25
2019-02-21T06:26:39.564Z,93.30
2019-02-21T06:29:09.950Z,93.33
2019-02-21T06:31:38.287Z,93.00
2019-02-21T06:34:06.554Z,93.24
2019-02-21T06:36:34.826Z,93.37
2019-02-21T06:39:04.468Z,93.25
2019-02-21T06:41:32.722Z,93.46
2019-02-21T06:44:00.997Z,93.31
2019-02-21T06:46:29.288Z,93.44
2019-02-21T06:48:57.553Z,93.28
2019-02-21T06:51:25.827Z,93.32
2019-02-21T06:53:54.254Z,93.26
2019-02-21T06:56:22.533Z,93.35
2019-02-21T06:58:50.818Z,93.41
2019-02-21T07:01:28.890Z,93.38
2019-02-21T07:03:49.087Z,93.32
2019-02-21T07:06:19.114Z,93.13
2019-02-21T07:08:47.494Z,93.26
2019-02-21T07:11:15.771Z,93.31
2019-02-21T07:13:44.614Z,93.14
2019-02-21T07:16:13.279Z,93.09
2019-02-21T07:18:41.554Z,93.00
2019-02-21T07:21:13.348Z,93.07
2019-02-21T07:23:43.755Z,93.11
2019-02-21T07:26:11.776Z,93.05
2019-02-21T07:28:41.671Z,93.26
2019-02-21T07:31:10.102Z,93.12
2019-02-21T07:33:39.044Z,92.92
2019-02-21T07:36:07.314Z,92.65
2019-02-21T07:38:35.578Z,92.37
2019-02-21T07:41:03.955Z,92.10
2019-02-21T07:43:32.185Z,92.17
2019-02-21T07:46:00.449Z,92.06
2019-02-21T07:48:28.735Z,91.93
2019-02-21T07:50:57.017Z,91.49
2019-02-21T07:53:25.283Z,91.25
2019-02-21T07:55:55.759Z,91.25
2019-02-21T07:58:23.549Z,91.32
2019-02-21T08:00:54.022Z,91.25
2019-02-21T08:03:29.777Z,91.36
2019-02-21T08:05:51.834Z,92.10
2019-02-21T08:08:20.989Z,93.57
2019-02-21T08:10:49.262Z,94.35
2019-02-21T08:13:17.545Z,94.76
2019-02-21T08:15:45.809Z,95.18
2019-02-21T08:18:14.091Z,95.07
2019-02-21T08:20:42.357Z,95.01
2019-02-21T08:23:11.106Z,95.25
2019-02-21T08:25:39.480Z,95.24
2019-02-21T08:28:07.770Z,95.15
2019-02-21T08:30:36.063Z,95.15
2019-02-21T08:33:05.971Z,95.07
2019-02-21T08:35:34.251Z,95.10
2019-02-21T08:38:02.550Z,95.11
2019-02-21T08:40:30.823Z,95.39
2019-02-21T08:42:59.083Z,95.03
2019-02-21T08:45:27.370Z,95.31
2019-02-21T08:47:55.633Z,95.54
2019-02-21T08:50:23.905Z,96.17
2019-02-21T08:52:52.186Z,97.02
2019-02-21T08:55:20.450Z,96.90
2019-02-21T08:57:48.725Z,97.40
2019-02-21T09:00:17.132Z,97.42
2019-02-21T09:02:45.478Z,97.29
2019-02-21T09:05:14.027Z,97.27
2019-02-21T09:07:42.243Z,97.22
2019-02-21T09:10:12.373Z,96.48
2019-02-21T09:12:40.637Z,96.56
2019-02-21T09:15:12.134Z,96.07
2019-02-21T09:17:40.438Z,95.78
2019-02-21T09:20:10.036Z,95.23
2019-02-21T09:22:38.327Z,95.15
2019-02-21T09:25:09.300Z,94.90
2019-02-21T09:27:37.600Z,95.15
2019-02-21T09:30:12.325Z,95.06
2019-02-21T09:32:42.032Z,94.13
2019-02-21T09:35:10.354Z,93.91
2019-02-21T09:37:38.635Z,94.73
2019-02-21T09:40:12.121Z,94.85
2019-02-21T09:42:40.326Z,95.00
2019-02-21T09:45:11.762Z,94.62
2019-02-21T09:47:40.060Z,94.79
2019-02-21T09:50:09.572Z,95.18
2019-02-21T09:52:37.828Z,94.49
2019-02-21T09:55:16.962Z,94.44
2019-02-21T09:57:45.295Z,94.34
2019-02-21T10:00:22.863Z,94.53
2019-02-21T10:02:54.234Z,94.57
2019-02-21T10:05:21.123Z,94.44
2019-02-21T10:07:49.413Z,93.71
2019-02-21T10:10:20.376Z,94.05
2019-02-21T10:12:48.674Z,93.93
2019-02-21T10:15:17.085Z,92.98
2019-02-21T10:17:45.356Z,92.40
2019-02-21T10:20:18.983Z,92.75
2019-02-21T10:22:47.261Z,92.93
2019-02-21T10:25:17.758Z,92.52
2019-02-21T10:27:46.034Z,92.87
2019-02-21T10:30:16.647Z,93.37
2019-02-21T10:32:44.981Z,93.77
2019-02-21T10:35:13.313Z,93.72
2019-02-21T10:37:41.602Z,93.89
2019-02-21T10:40:11.931Z,93.90
2019-02-21T10:42:40.194Z,94.03
2019-02-21T10:45:11.298Z,93.69
2019-02-21T10:47:39.568Z,93.37
2019-02-21T10:50:14.082Z,93.21
2019-02-21T10:52:44.327Z,93.78
2019-02-21T10:55:12.679Z,93.58
2019-02-21T10:57:41.027Z,93.35
2019-02-21T11:00:12.315Z,93.68
2019-02-21T11:02:40.582Z,94.04
2019-02-21T11:05:10.285Z,94.12
2019-02-21T11:07:38.568Z,93.57
2019-02-21T11:10:10.017Z,92.68
2019-02-21T11:12:38.279Z,92.58
2019-02-21T11:15:09.680Z,92.91
2019-02-21T11:17:37.949Z,93.26
2019-02-21T11:20:09.214Z,93.50
2019-02-21T11:22:37.501Z,93.87
2019-02-21T11:25:07.706Z,94.34
2019-02-21T11:27:35.974Z,94.58
2019-02-21T11:30:10.094Z,94.23
2019-02-21T11:32:38.348Z,94.37
2019-02-21T11:35:07.144Z,94.28
2019-02-21T11:37:42.706Z,94.14
2019-02-21T11:40:07.733Z,94.04
2019-02-21T11:42:35.986Z,93.46
2019-02-21T11:45:06.393Z,93.40
2019-02-21T11:47:34.672Z,93.22
2019-02-21T11:50:03.019Z,93.31
2019-02-21T11:52:31.287Z,93.57
2019-02-21T11:54:59.564Z,93.54
2019-02-21T11:57:27.829Z,93.77
2019-02-21T11:59:56.070Z,94.35
2019-02-21T12:02:24.323Z,94.52
2019-02-21T12:04:52.583Z,94.66
2019-02-21T12:07:20.851Z,94.72
2019-02-21T12:09:49.145Z,94.94
2019-02-21T12:12:17.412Z,94.54
2019-02-21T12:14:45.690Z,94.83
2019-02-21T12:17:13.960Z,94.96
2019-02-21T12:19:42.234Z,95.43
2019-02-21T12:22:10.573Z,95.49
2019-02-21T12:24:38.865Z,95.63
2019-02-21T12:27:07.116Z,95.94
2019-02-21T12:29:35.393Z,96.10
2019-02-21T12:32:03.656Z,96.26
2019-02-21T12:34:31.907Z,96.06
2019-02-21T12:37:00.192Z,96.07
2019-02-21T12:39:28.459Z,96.15
2019-02-21T12:41:56.745Z,96.41
2019-02-21T12:44:25.022Z,96.77
2019-02-21T12:46:53.285Z,97.11
2019-02-21T12:49:21.561Z,97.47
2019-02-21T12:51:49.828Z,97.73
2019-02-21T12:54:18.089Z,97.66
2019-02-21T12:56:46.353Z,97.47
2019-02-21T12:59:14.617Z,97.28
2019-02-21T13:01:42.886Z,97.30
2019-02-21T13:04:11.142Z,97.41
2019-02-21T13:06:39.396Z,97.52
2019-02-21T13:09:07.725Z,97.51
2019-02-21T13:11:35.999Z,97.46
2019-02-21T13:14:04.255Z,97.66
2019-02-21T13:16:32.507Z,98.29
2019-02-21T13:19:00.760Z,98.68
2019-02-21T13:21:29.031Z,98.56
2019-02-21T13:23:57.312Z,98.41
2019-02-21T13:26:27.971Z,98.26
2019-02-21T13:28:56.219Z,98.41
2019-02-21T13:31:24.704Z,98.83
2019-02-21T13:33:52.965Z,99.12
2019-02-21T13:36:22.765Z,99.74
2019-02-21T13:38:51.032Z,100.00
2019-02-21T13:41:19.293Z,100.00
2019-02-21T13:43:47.595Z,100.00
2019-02-21T13:46:15.866Z,100.00
2019-02-21T13:48:44.178Z,100.00
2019-02-21T13:51:12.413Z,100.00
2019-02-21T13:53:41.709Z,100.00
2019-02-21T13:56:10.041Z,100.00
2019-02-21T13:58:38.315Z,100.00
2019-02-21T14:01:06.586Z,100.00
2019-02-21T14:03:34.955Z,100.00
2019-02-21T14:06:04.082Z,100.00
2019-02-21T14:08:32.314Z,100.00
2019-02-21T14:11:00.578Z,100.00
2019-02-21T14:13:28.857Z,100.00
2019-02-21T14:15:57.131Z,100.00
2019-02-21T14:18:25.397Z,100.00
2019-02-21T14:20:53.663Z,100.00
2019-02-21T14:23:21.942Z,100.00
2019-02-21T14:25:50.228Z,100.00
2019-02-21T14:28:18.498Z,100.00
2019-02-21T14:30:46.764Z,100.00
2019-02-21T14:33:17.398Z,100.00
2019-02-21T14:35:45.042Z,100.00
2019-02-21T14:38:13.292Z,100.00
2019-02-21T14:40:41.593Z,100.00
2019-02-21T14:43:09.863Z,100.00
2019-02-21T14:45:38.166Z,100.00
2019-02-21T14:48:06.438Z,100.00
2019-02-21T14:50:36.103Z,100.00
2019-02-21T14:53:04.539Z,100.00
2019-02-21T14:55:32.819Z,100.00
2019-02-21T14:58:01.091Z,100.00
2019-02-21T15:00:29.830Z,100.00
2019-02-21T15:02:58.177Z,100.00
2019-02-21T15:05:26.433Z,100.00
2019-02-21T15:07:54.718Z,100.00
2019-02-21T15:10:22.985Z,100.00
2019-02-21T15:12:51.277Z,100.00
2019-02-21T15:15:24.863Z,100.00
2019-02-21T15:17:53.129Z,100.00
2019-02-21T15:20:21.417Z,100.00
2019-02-21T15:22:49.687Z,100.00
2019-02-21T15:25:17.964Z,100.00
2019-02-21T15:27:46.376Z,100.00
2019-02-21T15:30:22.423Z,100.00
2019-02-21T15:32:50.685Z,100.00
2019-02-21T15:35:19.682Z,100.00
2019-02-21T15:37:48.017Z,100.00
2019-02-21T15:40:16.291Z,100.00
2019-02-21T15:42:44.564Z,100.00
2019-02-21T15:45:26.715Z,100.00
2019-02-21T15:47:54.972Z,100.00
2019-02-21T15:50:23.248Z,100.00
2019-02-21T15:52:56.063Z,100.00
2019-02-21T15:55:24.330Z,100.00
2019-02-21T15:58:03.235Z,100.00
2019-02-21T16:00:23.828Z,100.00
2019-02-21T16:02:52.152Z,100.00
2019-02-21T16:05:20.432Z,100.00
2019-02-21T16:07:48.692Z,100.00
2019-02-21T16:10:25.103Z,100.00
2019-02-21T16:12:53.487Z,100.00
2019-02-21T16:15:21.735Z,100.00
2019-02-21T16:17:50.871Z,100.00
2019-02-21T16:20:20.237Z,100.00
2019-02-21T16:22:48.552Z,100.00
2019-02-21T16:25:22.590Z,100.00
2019-02-21T16:27:50.872Z,100.00
2019-02-21T16:30:21.868Z,100.00
2019-02-21T16:32:49.435Z,100.00
2019-02-21T16:35:17.703Z,100.00
2019-02-21T16:37:45.967Z,100.00
2019-02-21T16:40:16.372Z,100.00
2019-02-21T16:42:44.666Z,100.00
2019-02-21T16:45:22.766Z,100.00
2019-02-21T16:47:51.114Z,100.00
2019-02-21T16:50:29.438Z,100.00
2019-02-21T16:52:49.386Z,100.00
2019-02-21T16:55:22.641Z,100.00
2019-02-21T16:57:50.920Z,100.00
2019-02-21T17:00:21.336Z,100.00
2019-02-21T17:02:49.619Z,100.00
2019-02-21T17:05:17.892Z,100.00
2019-02-21T17:07:46.171Z,100.00
2019-02-21T17:10:15.682Z,100.00
2019-02-21T17:12:43.948Z,100.00
2019-02-21T17:15:16.628Z,100.00
2019-02-21T17:17:44.916Z,100.00
2019-02-21T17:20:21.268Z,100.00
2019-02-21T17:22:49.553Z,100.00
2019-02-21T17:25:17.835Z,100.00
2019-02-21T17:27:46.439Z,100.00
2019-02-21T17:30:18.512Z,100.00
2019-02-21T17:32:46.758Z,100.00
2019-02-21T17:35:15.195Z,100.00
2019-02-21T17:37:43.460Z,100.00
2019-02-21T17:40:14.849Z,100.00
2019-02-21T17:42:43.111Z,100.00
2019-02-21T17:45:11.711Z,100.00
2019-02-21T17:47:39.998Z,100.00
2019-02-21T17:50:11.385Z,100.00
2019-02-21T17:52:39.643Z,100.00
2019-02-21T17:55:09.849Z,100.00
2019-02-21T17:57:38.116Z,100.00
2019-02-21T18:00:17.269Z,100.00
2019-02-21T18:02:45.416Z,100.00
2019-02-21T18:05:13.685Z,100.00
2019-02-21T18:07:41.951Z,100.00
2019-02-21T18:10:12.954Z,100.00
2019-02-21T18:12:41.219Z,100.00
2019-02-21T18:15:11.523Z,100.00
2019-02-21T18:17:39.801Z,100.00
2019-02-21T18:20:10.525Z,100.00
2019-02-21T18:22:38.850Z,100.00
2019-02-21T18:25:19.332Z,100.00
2019-02-21T18:27:47.608Z,100.00
2019-02-21T18:30:17.138Z,100.00
2019-02-21T18:32:45.419Z,100.00
2019-02-21T18:35:13.859Z,100.00
2019-02-21T18:37:47.444Z,100.00
2019-02-21T18:40:20.620Z,100.00
2019-02-21T18:42:47.913Z,100.00
2019-02-21T18:45:16.227Z,100.00
2019-02-21T18:47:44.471Z,100.00
2019-02-21T18:50:13.885Z,100.00
2019-02-21T18:52:42.187Z,100.00
2019-02-21T18:55:10.739Z,100.00
2019-02-21T18:57:39.005Z,100.00
2019-02-21T19:00:12.720Z,100.00
2019-02-21T19:02:41.064Z,100.00
2019-02-21T19:05:09.509Z,100.00
2019-02-21T19:07:37.789Z,100.00
2019-02-21T19:10:11.678Z,100.00
2019-02-21T19:12:39.955Z,100.00
2019-02-21T19:15:09.864Z,100.00
2019-02-21T19:17:38.125Z,100.00
2019-02-21T19:20:11.687Z,100.00
2019-02-21T19:22:40.038Z,100.00
2019-02-21T19:25:10.162Z,100.00
2019-02-21T19:27:38.419Z,100.00
2019-02-21T19:30:12.338Z,100.00
2019-02-21T19:32:40.609Z,100.00
2019-02-21T19:35:09.427Z,100.00
2019-02-21T19:37:37.712Z,100.00
2019-02-21T19:40:08.614Z,100.00
2019-02-21T19:42:36.963Z,100.00
2019-02-21T19:45:06.976Z,100.00
2019-02-21T19:47:35.635Z,100.00
2019-02-21T19:50:05.644Z,100.00
2019-02-21T19:52:33.917Z,100.00
2019-02-21T19:55:02.214Z,100.00
2019-02-21T19:57:30.512Z,100.00
2019-02-21T19:59:58.784Z,100.00
2019-02-21T20:02:27.125Z,100.00
2019-02-21T20:04:55.403Z,100.00
2019-02-21T20:07:23.698Z,100.00
2019-02-21T20:09:51.982Z,100.00
2019-02-21T20:12:20.253Z,100.00
2019-02-21T20:14:48.526Z,100.00
2019-02-21T20:17:16.811Z,100.00
2019-02-21T20:19:45.070Z,100.00
2019-02-21T20:22:13.356Z,100.00
2019-02-21T20:24:41.648Z,100.00
2019-02-21T20:27:09.923Z,100.00
2019-02-21T20:29:38.218Z,100.00
2019-02-21T20:32:06.528Z,100.00
2019-02-21T20:34:34.810Z,100.00
2019-02-21T20:37:03.084Z,100.00
2019-02-21T20:39:31.371Z,100.00
2019-02-21T20:41:59.655Z,100.00
2019-02-21T20:44:27.908Z,100.00
2019-02-21T20:46:56.180Z,100.00
2019-02-21T20:49:24.546Z,100.00
2019-02-21T20:51:52.845Z,100.00
2019-02-21T20:54:21.138Z,100.00
2019-02-21T20:56:49.419Z,100.00
2019-02-21T20:59:17.684Z,100.00
2019-02-21T21:01:45.952Z,100.00
2019-02-21T21:04:14.226Z,100.00
2019-02-21T21:06:42.532Z,100.00
2019-02-21T21:09:10.828Z,100.00
2019-02-21T21:11:39.101Z,100.00
2019-02-21T21:14:07.385Z,100.00
2019-02-21T21:16:35.689Z,100.00
2019-02-21T21:19:03.945Z,100.00
2019-02-21T21:21:32.233Z,100.00
2019-02-21T21:24:00.533Z,100.00
2019-02-21T21:26:28.810Z,100.00
2019-02-21T21:28:57.087Z,100.00
2019-02-21T21:31:25.400Z,100.00
2019-02-21T21:33:53.724Z,100.00
2019-02-21T21:36:21.987Z,100.00
2019-02-21T21:38:54.189Z,100.00
2019-02-21T21:41:20.255Z,100.00
2019-02-21T21:43:48.548Z,100.00
2019-02-21T21:46:16.836Z,100.00
2019-02-21T21:48:45.126Z,100.00
2019-02-21T21:51:13.409Z,100.00
2019-02-21T21:53:41.718Z,100.00
2019-02-21T21:56:09.997Z,100.00
2019-02-21T21:58:38.308Z,100.00
2019-02-21T22:01:06.658Z,100.00
2019-02-21T22:03:35.121Z,100.00
2019-02-21T22:06:03.405Z,100.00
2019-02-21T22:08:31.725Z,100.00
2019-02-21T22:11:00.043Z,100.00
2019-02-21T22:13:28.327Z,100.00
2019-02-21T22:15:56.752Z,100.00
2019-02-21T22:18:25.031Z,100.00
2019-02-21T22:20:53.317Z,100.00
2019-02-21T22:23:21.613Z,100.00
2019-02-21T22:25:49.880Z,100.00
2019-02-21T22:28:18.156Z,100.00
2019-02-21T22:30:46.583Z,100.00
2019-02-21T22:33:14.841Z,100.00
2019-02-21T22:35:43.118Z,100.00
2019-02-21T22:38:11.381Z,100.00
2019-02-21T22:40:39.667Z,100.00
2019-02-21T22:43:07.953Z,100.00
2019-02-21T22:45:36.230Z,100.00
2019-02-21T22:48:04.521Z,100.00
2019-02-21T22:50:32.822Z,100.00
2019-02-21T22:53:01.107Z,100.00
2019-02-21T22:55:29.400Z,100.00
2019-02-21T22:57:57.689Z,100.00
2019-02-21T23:00:36.635Z,100.00
2019-02-21T23:03:07.798Z,100.00
2019-02-21T23:06:00.297Z,100.00
2019-02-21T23:08:45.163Z,100.00
2019-02-21T23:11:13.714Z,100.00
2019-02-21T23:13:41.988Z,100.00
2019-02-21T23:16:10.253Z,100.00
2019-02-21T23:18:38.542Z,100.00
2019-02-21T23:21:06.793Z,100.00
2019-02-21T23:23:35.060Z,100.00
2019-02-21T23:26:03.330Z,100.00
2019-02-21T23:28:31.591Z,100.00
2019-02-21T23:30:59.880Z,100.00
2019-02-21T23:33:28.906Z,100.00
2019-02-21T23:35:57.203Z,100.00
2019-02-21T23:38:25.459Z,100.00
2019-02-21T23:40:53.727Z,100.00
2019-02-21T23:43:22.030Z,100.00
2019-02-21T23:45:50.341Z,100.00
2019-02-21T23:48:18.619Z,100.00
2019-02-21T23:50:46.893Z,100.00
2019-02-21T23:53:15.147Z,100.00
2019-02-21T23:55:43.412Z,100.00
2019-02-21T23:58:11.689Z,100.00
